Portada
METAR-TAF:

METAR-TAF

Aeropuertos :

Talkeetna, Alaska, Estados Unidos

latitud: 62-19-14N, longitud: 150-05-37W, altitud: 109 m

Observación

El informe se hizo hace 22 minutos, a las 20:53 UTC
Viento calma
Temperatura 3°C
Humedad 41%
Presión 1022 hPa
Visibilidad: 16.1 km
Cielo despejado

METAR: PATK 142053Z 00000KT 10SM CLR 03/M09 A3019 RMK AO2 SLP229 T00281089 51016

Hora: 13:15 (21:15 UTC)

Pronóstico

El informe se hizo hace 3 horas y 53 minutos, a las 17:22 UTC
Pronóstico válido del 14 a las 18 UTC al 15 a las 18 UTC
Viento 4 kt con dirección variable
Visibilidad: 10 km
Nubes dispersas a una altura de 25000 ft

TAF: PATK 141722Z 1418/1518 VRB04KT P6SM SCT250

Observaciones y pronósticos meteorológicos de más de 4000 aeropuertos (mensajes METAR y TAF).

Los puntos amarillos y rojos representan las estaciones disponibles.

Ponga el ratón en el punto deseado para ver el nombre de la estación.

Haga clic para ver las observaciones y los pronósticos meteorológicos.

Para cambiar el mapa : haga clic en los botones verdes con una cruz de color negro para hacer un zoom, en el botón verde con un guión para alejar o en las flechas verdes para mapas adyacentes.


METAR-TAF: